Time;durP1;ratioP1;P1;durP2;ratioP2;P2;SDS_P1;SDS_P2;PMS_P1;PMS_P2;Temp;Humidity;BMP_temperature;BMP_pressure;BME280_temperature;BME280_humidity;BME280_pressure;Samples;Min_cycle;Max_cycle;Signal;HPM_P1;HPM_P2
2024/04/10 00:01:59;0.00;0.00;0.62;0.00;0.00;0.62;2.57;1.40;;;26.50;24.10;;;;;;2031983;62;20863;-65
2024/04/10 00:04:48;0.00;0.00;0.62;0.00;0.00;0.62;2.73;1.07;;;26.50;24.00;;;;;;2031497;62;20465;-65
2024/04/10 00:07:33;0.00;0.00;0.62;0.00;0.00;0.62;1.90;1.20;;;26.50;24.00;;;;;;2031774;62;20472;-65
2024/04/10 00:10:18;0.00;0.00;0.62;0.00;0.00;0.62;2.23;1.40;;;26.40;24.00;;;;;;2030983;62;20888;-65
2024/04/10 00:13:03;0.00;0.00;0.62;0.00;0.00;0.62;3.00;1.50;;;26.50;24.00;;;;;;2031064;62;20475;-64
2024/04/10 00:15:57;0.00;0.00;0.62;0.00;0.00;0.62;2.50;1.20;;;26.40;24.00;;;;;;2031956;62;20464;-65
2024/04/10 00:18:43;0.00;0.00;0.62;0.00;0.00;0.62;3.20;1.80;;;26.40;24.00;;;;;;2031034;62;20942;-65
2024/04/10 00:21:33;0.00;0.00;0.62;0.00;0.00;0.62;2.67;1.60;;;26.40;24.00;;;;;;2031457;62;20522;-64
2024/04/10 00:24:18;0.00;0.00;0.62;0.00;0.00;0.62;2.93;1.40;;;26.40;24.00;;;;;;2031877;62;20514;-65
2024/04/10 00:27:03;0.00;0.00;0.62;0.00;0.00;0.62;2.40;1.27;;;26.40;24.00;;;;;;2031396;62;20524;-64
2024/04/10 00:29:50;0.00;0.00;0.62;0.00;0.00;0.62;2.63;1.27;;;26.40;24.00;;;;;;2031735;62;20551;-64
2024/04/10 00:32:34;0.00;0.00;0.62;0.00;0.00;0.62;2.97;1.53;;;26.40;24.00;;;;;;2031259;62;20484;-63
2024/04/10 00:35:19;0.00;0.00;0.62;0.00;0.00;0.62;2.53;1.70;;;26.40;24.00;;;;;;2031458;62;20476;-64
2024/04/10 00:38:06;0.00;0.00;0.62;0.00;0.00;0.62;4.00;1.60;;;26.30;23.90;;;;;;2031681;62;20549;-63
2024/04/10 00:40:55;0.00;0.00;0.62;0.00;0.00;0.62;2.70;1.40;;;26.30;23.90;;;;;;2031233;62;20484;-65
2024/04/10 00:43:40;0.00;0.00;0.62;0.00;0.00;0.62;2.40;1.57;;;26.30;24.50;;;;;;2031599;62;21349;-64
2024/04/10 00:46:25;0.00;0.00;0.62;0.00;0.00;0.62;2.23;1.53;;;26.30;23.90;;;;;;2031645;62;20540;-64
2024/04/10 00:49:09;0.00;0.00;0.62;0.00;0.00;0.62;2.43;1.10;;;26.30;23.90;;;;;;2030987;62;20472;-65
2024/04/10 00:51:55;0.00;0.00;0.62;0.00;0.00;0.62;2.03;1.30;;;26.30;23.90;;;;;;2032809;57;21131;31
2024/04/10 00:54:44;0.00;0.00;0.62;0.00;0.00;0.62;2.90;1.60;;;26.30;23.90;;;;;;2015640;63;20556;-67
2024/04/10 00:57:29;0.00;0.00;0.62;0.00;0.00;0.62;2.97;1.70;;;26.30;23.90;;;;;;2016227;63;20480;-67
2024/04/10 01:00:15;0.00;0.00;0.62;0.00;0.00;0.62;5.53;1.20;;;26.30;24.50;;;;;;2016783;63;21043;-65
2024/04/10 01:02:59;0.00;0.00;0.62;0.00;0.00;0.62;2.40;1.20;;;26.30;23.90;;;;;;2018646;63;20956;-67
2024/04/10 01:05:56;0.00;0.00;0.62;0.00;0.00;0.62;2.67;1.47;;;26.30;23.90;;;;;;2021161;63;21111;-66
2024/04/10 01:08:41;0.00;0.00;0.62;0.00;0.00;0.62;2.37;1.50;;;26.30;24.00;;;;;;2021052;63;20550;-65
2024/04/10 01:11:29;0.00;0.00;0.62;0.00;0.00;0.62;2.70;1.50;;;26.20;23.90;;;;;;2021255;63;21000;-67
2024/04/10 01:14:13;0.00;0.00;0.62;0.00;0.00;0.62;2.73;1.40;;;26.20;23.90;;;;;;2021759;63;20483;-67
2024/04/10 01:16:59;0.00;0.00;0.62;0.00;0.00;0.62;2.93;1.90;;;26.20;23.90;;;;;;2021387;63;20475;-68
2024/04/10 01:19:43;0.00;0.00;0.62;0.00;0.00;0.62;3.20;2.13;;;26.20;23.90;;;;;;2021182;63;20483;-66
2024/04/10 01:22:28;0.00;0.00;0.62;0.00;0.00;0.62;4.13;2.13;;;26.20;23.90;;;;;;2021597;63;20538;-66
2024/04/10 01:25:15;0.00;0.00;0.62;0.00;0.00;0.62;2.70;1.70;;;26.20;23.90;;;;;;2021233;55;20486;-66
2024/04/10 01:28:00;0.00;0.00;0.62;0.00;0.00;0.62;3.90;1.70;;;26.20;23.90;;;;;;2021149;63;21013;-66
2024/04/10 01:30:45;0.00;0.00;0.62;0.00;0.00;0.62;3.50;1.90;;;26.20;23.90;;;;;;2021225;63;21068;-67
2024/04/10 01:33:30;0.00;0.00;0.62;0.00;0.00;0.62;3.57;2.17;;;26.20;23.90;;;;;;2021319;63;20543;-67
2024/04/10 01:36:14;0.00;0.00;0.62;0.00;0.00;0.62;3.43;2.00;;;26.20;23.90;;;;;;2021547;63;20535;-67
2024/04/10 01:38:59;0.00;0.00;0.62;0.00;0.00;0.62;4.17;2.03;;;26.20;23.90;;;;;;2020871;63;20562;-67
2024/04/10 01:41:47;0.00;0.00;0.62;0.00;0.00;0.62;3.17;2.30;;;26.20;23.90;;;;;;2021215;63;20471;-67
2024/04/10 01:44:31;0.00;0.00;0.62;0.00;0.00;0.62;5.80;2.67;;;26.20;23.90;;;;;;2021578;63;20545;-66
2024/04/10 01:47:16;0.00;0.00;0.62;0.00;0.00;0.62;4.07;2.50;;;26.20;23.80;;;;;;2020521;63;20479;-67
2024/04/10 01:50:01;0.00;0.00;0.62;0.00;0.00;0.62;4.23;2.50;;;26.20;23.80;;;;;;2020763;63;20487;-66
2024/04/10 01:52:55;0.00;0.00;0.62;0.00;0.00;0.62;3.77;2.53;;;26.20;23.90;;;;;;2021476;63;20469;-67
2024/04/10 01:55:40;0.00;0.00;0.62;0.00;0.00;0.62;3.50;2.77;;;26.10;23.80;;;;;;2018792;63;20490;-67
2024/04/10 01:58:29;0.00;0.00;0.62;0.00;0.00;0.62;3.80;2.10;;;26.10;24.30;;;;;;2021513;63;21069;-66
2024/04/10 02:01:14;0.00;0.00;0.62;0.00;0.00;0.62;4.20;2.57;;;26.10;23.80;;;;;;2021271;63;20467;-66
2024/04/10 02:03:59;0.00;0.00;0.62;0.00;0.00;0.62;4.40;2.80;;;26.10;23.80;;;;;;2020136;63;20542;-67
2024/04/10 02:06:44;0.00;0.00;0.62;0.00;0.00;0.62;3.73;3.00;;;26.10;23.80;;;;;;2021610;63;20482;-67
2024/04/10 02:09:29;0.00;0.00;0.62;0.00;0.00;0.62;5.17;3.20;;;26.10;23.80;;;;;;2020851;63;20551;-66
2024/04/10 02:12:14;0.00;0.00;0.62;0.00;0.00;0.62;5.10;2.40;;;26.10;23.80;;;;;;2021334;63;20490;-67
2024/04/10 02:15:01;0.00;0.00;0.62;0.00;0.00;0.62;4.30;2.43;;;26.10;23.80;;;;;;2021612;63;20463;-66
2024/04/10 02:17:46;0.00;0.00;0.62;0.00;0.00;0.62;3.50;2.50;;;26.10;23.80;;;;;;2020589;63;21079;-66
2024/04/10 02:20:30;0.00;0.00;0.62;0.00;0.00;0.62;4.43;2.40;;;26.10;23.80;;;;;;2021494;63;20479;-66
2024/04/10 02:23:15;0.00;0.00;0.62;0.00;0.00;0.62;4.00;2.63;;;26.10;23.80;;;;;;2021533;63;20547;-66
2024/04/10 02:26:08;0.00;0.00;0.62;0.00;0.00;0.62;3.87;3.27;;;26.10;23.80;;;;;;2020471;63;20474;-66
2024/04/10 02:28:53;0.00;0.00;0.62;0.00;0.00;0.62;3.33;2.37;;;26.00;23.80;;;;;;2021394;63;21092;-66
2024/04/10 02:31:41;0.00;0.00;0.62;0.00;0.00;0.62;3.83;2.50;;;26.00;24.30;;;;;;2020898;63;20648;-66
2024/04/10 02:34:25;0.00;0.00;0.62;0.00;0.00;0.62;4.70;2.97;;;26.00;23.80;;;;;;2021082;63;20479;-67
2024/04/10 02:37:10;0.00;0.00;0.62;0.00;0.00;0.62;4.87;2.60;;;26.00;23.80;;;;;;2021528;63;20467;-67
2024/04/10 02:39:54;0.00;0.00;0.62;0.00;0.00;0.62;3.87;2.30;;;26.00;23.80;;;;;;2020554;63;20483;-67
2024/04/10 02:42:45;0.00;0.00;0.62;0.00;0.00;0.62;3.90;2.30;;;26.00;23.80;;;;;;2021783;63;20474;-67
2024/04/10 02:45:30;0.00;0.00;0.62;0.00;0.00;0.62;4.77;2.70;;;26.00;23.80;;;;;;2021827;63;20919;-66
2024/04/10 02:48:18;0.00;0.00;0.62;0.00;0.00;0.62;3.60;2.20;;;26.00;23.90;;;;;;2020774;63;20471;-67
2024/04/10 02:51:06;0.00;0.00;0.62;0.00;0.00;0.62;2.77;2.17;;;26.00;23.90;;;;;;2021866;63;20459;-67
2024/04/10 02:53:51;0.00;0.00;0.62;0.00;0.00;0.62;3.60;2.43;;;26.00;23.90;;;;;;2021330;63;20483;-66
2024/04/10 02:56:35;0.00;0.00;0.62;0.00;0.00;0.62;4.63;2.47;;;26.00;23.90;;;;;;2021507;63;20538;-67
2024/04/10 02:59:20;0.00;0.00;0.62;0.00;0.00;0.62;6.13;2.00;;;26.00;23.90;;;;;;2021758;63;20474;-67
2024/04/10 03:02:05;0.00;0.00;0.62;0.00;0.00;0.62;3.50;2.70;;;26.00;24.00;;;;;;2021126;63;21232;-66
2024/04/10 03:04:52;0.00;0.00;0.62;0.00;0.00;0.62;5.63;2.80;;;26.00;24.00;;;;;;2021991;63;20534;-66
2024/04/10 03:07:36;0.00;0.00;0.62;0.00;0.00;0.62;2.70;1.97;;;26.00;24.00;;;;;;2021882;63;20561;-67
2024/04/10 03:10:21;0.00;0.00;0.62;0.00;0.00;0.62;6.00;2.80;;;26.00;24.00;;;;;;2020769;63;20475;-67
2024/04/10 03:13:07;0.00;0.00;0.62;0.00;0.00;0.62;4.73;2.37;;;26.00;24.00;;;;;;2021913;63;20486;-67
2024/04/10 03:15:52;0.00;0.00;0.62;0.00;0.00;0.62;4.10;2.30;;;26.00;24.00;;;;;;2021292;63;20467;-67
2024/04/10 03:18:37;0.00;0.00;0.62;0.00;0.00;0.62;3.00;2.17;;;25.90;24.00;;;;;;2021147;63;20463;-66
2024/04/10 03:21:24;0.00;0.00;0.62;0.00;0.00;0.62;2.90;2.13;;;25.90;24.00;;;;;;2021890;63;21032;-67
2024/04/10 03:24:09;0.00;0.00;0.62;0.00;0.00;0.62;3.77;2.23;;;25.90;24.00;;;;;;2021077;63;20487;-67
2024/04/10 03:26:53;0.00;0.00;0.62;0.00;0.00;0.62;3.00;2.00;;;25.90;24.00;;;;;;2021562;63;20458;-66
2024/04/10 03:29:38;0.00;0.00;0.62;0.00;0.00;0.62;3.17;2.20;;;25.90;24.00;;;;;;2021728;63;20878;-66
2024/04/10 03:32:22;0.00;0.00;0.62;0.00;0.00;0.62;3.60;2.20;;;25.90;23.90;;;;;;2020996;63;20613;-68
2024/04/10 03:35:07;0.00;0.00;0.62;0.00;0.00;0.62;4.03;2.40;;;25.90;23.90;;;;;;2021736;63;20504;-67
2024/04/10 03:37:55;0.00;0.00;0.62;0.00;0.00;0.62;4.47;3.00;;;25.90;23.90;;;;;;2021660;63;21072;-67
2024/04/10 03:40:40;0.00;0.00;0.62;0.00;0.00;0.62;3.90;2.37;;;25.90;24.00;;;;;;2016584;63;20538;-66
2024/04/10 03:43:25;0.00;0.00;0.62;0.00;0.00;0.62;6.43;2.70;;;25.90;24.00;;;;;;2016716;63;20544;-66
2024/04/10 03:46:12;0.00;0.00;0.62;0.00;0.00;0.62;3.37;2.80;;;25.90;24.00;;;;;;2018025;63;21112;-66
2024/04/10 03:48:58;0.00;0.00;0.62;0.00;0.00;0.62;5.57;3.30;;;25.80;23.90;;;;;;2021571;63;21000;-67
2024/04/10 03:51:42;0.00;0.00;0.62;0.00;0.00;0.62;4.10;3.07;;;25.80;23.90;;;;;;2021672;63;20541;-66
2024/04/10 03:54:30;0.00;0.00;0.62;0.00;0.00;0.62;4.70;3.17;;;25.80;23.90;;;;;;2020388;63;20474;-67
2024/04/10 03:57:14;0.00;0.00;0.62;0.00;0.00;0.62;6.40;3.50;;;25.80;23.90;;;;;;2021843;63;20498;-67
2024/04/10 03:59:59;0.00;0.00;0.62;0.00;0.00;0.62;4.00;2.97;;;25.80;23.90;;;;;;2021662;63;20495;-67
2024/04/10 04:02:44;0.00;0.00;0.62;0.00;0.00;0.62;4.70;3.10;;;25.80;23.90;;;;;;2021309;63;20529;-66
2024/04/10 04:05:29;0.00;0.00;0.62;0.00;0.00;0.62;4.57;2.80;;;25.80;24.50;;;;;;2021803;63;21031;-66
2024/04/10 04:08:14;0.00;0.00;0.62;0.00;0.00;0.62;4.63;3.50;;;25.80;23.90;;;;;;2021111;63;20554;-66
2024/04/10 04:11:04;0.00;0.00;0.62;0.00;0.00;0.62;4.10;2.87;;;25.80;24.00;;;;;;2021036;63;20561;-66
2024/04/10 04:13:49;0.00;0.00;0.62;0.00;0.00;0.62;4.50;3.60;;;25.80;24.00;;;;;;2021738;63;20475;-66
2024/04/10 04:16:36;0.00;0.00;0.62;0.00;0.00;0.62;7.40;3.80;;;25.80;24.00;;;;;;2020859;63;20471;-66
2024/04/10 04:19:21;0.00;0.00;0.62;0.00;0.00;0.62;5.77;3.40;;;25.80;24.00;;;;;;2021700;63;20478;-66
2024/04/10 04:22:06;0.00;0.00;0.62;0.00;0.00;0.62;4.43;3.40;;;25.80;24.00;;;;;;2021843;63;20463;-66
2024/04/10 04:24:50;0.00;0.00;0.62;0.00;0.00;0.62;5.77;3.57;;;25.80;24.00;;;;;;2020983;63;20534;-68
2024/04/10 04:27:38;0.00;0.00;0.62;0.00;0.00;0.62;4.90;3.37;;;25.80;24.00;;;;;;2021978;63;20500;-66
2024/04/10 04:30:23;0.00;0.00;0.62;0.00;0.00;0.62;6.07;3.87;;;25.80;24.00;;;;;;2021588;63;20498;-67
2024/04/10 04:33:08;0.00;0.00;0.62;0.00;0.00;0.62;4.40;3.20;;;25.70;24.00;;;;;;2021975;63;20483;-67
2024/04/10 04:35:53;0.00;0.00;0.62;0.00;0.00;0.62;5.50;4.17;;;25.70;24.00;;;;;;2021923;63;20543;-67
2024/04/10 04:38:38;0.00;0.00;0.62;0.00;0.00;0.62;7.40;4.27;;;25.70;24.00;;;;;;2021511;63;20474;-65
2024/04/10 04:41:24;0.00;0.00;0.62;0.00;0.00;0.62;5.90;4.20;;;25.70;24.50;;;;;;2021973;63;21005;-66
2024/04/10 04:44:13;0.00;0.00;0.62;0.00;0.00;0.62;6.90;4.57;;;25.70;24.00;;;;;;2021961;63;20538;-66
2024/04/10 04:46:57;0.00;0.00;0.62;0.00;0.00;0.62;7.17;4.83;;;25.70;24.00;;;;;;2016511;63;20480;-66
2024/04/10 04:49:43;0.00;0.00;0.62;0.00;0.00;0.62;6.47;5.03;;;25.70;24.00;;;;;;2016828;63;20480;-67
2024/04/10 04:52:27;0.00;0.00;0.62;0.00;0.00;0.62;10.20;5.93;;;25.70;24.00;;;;;;2017647;63;20579;-67
2024/04/10 04:55:12;0.00;0.00;0.62;0.00;0.00;0.62;5.50;4.30;;;25.70;24.00;;;;;;2021781;63;20463;-64
2024/04/10 04:57:57;0.00;0.00;0.62;0.00;0.00;0.62;6.40;4.90;;;25.70;24.00;;;;;;2021821;63;21012;-64
2024/04/10 05:00:44;0.00;0.00;0.62;0.00;0.00;0.62;6.60;5.40;;;25.70;24.60;;;;;;2021358;63;20478;-66
2024/04/10 05:06:32;0.00;0.00;0.62;0.00;0.00;0.62;7.27;4.77;;;25.70;24.10;;;;;;2021723;63;20543;-65
2024/04/10 05:09:17;0.00;0.00;0.62;0.00;0.00;0.62;8.20;5.70;;;25.70;24.10;;;;;;2021744;63;20954;-65
2024/04/10 05:12:02;0.00;0.00;0.62;0.00;0.00;0.62;9.93;6.50;;;25.70;24.10;;;;;;2021833;63;20522;-64
2024/04/10 05:14:50;0.00;0.00;0.62;0.00;0.00;0.62;9.17;6.43;;;25.70;24.10;;;;;;2021538;63;20491;-64
2024/04/10 05:17:37;0.00;0.00;0.62;0.00;0.00;0.62;7.73;6.00;;;25.70;24.10;;;;;;2021823;63;20531;-63
2024/04/10 05:20:23;0.00;0.00;0.62;0.00;0.00;0.62;8.30;6.87;;;25.70;24.10;;;;;;2021875;63;20479;-64
2024/04/10 05:23:08;0.00;0.00;0.62;0.00;0.00;0.62;7.87;5.97;;;25.70;24.10;;;;;;2021302;63;20475;-65
2024/04/10 05:25:54;0.00;0.00;0.62;0.00;0.00;0.62;9.13;6.80;;;25.70;24.10;;;;;;2021726;63;20487;-64
2024/04/10 05:28:38;0.00;0.00;0.62;0.00;0.00;0.62;10.40;7.10;;;25.70;24.10;;;;;;2021711;63;20492;-65
2024/04/10 05:31:23;0.00;0.00;0.62;0.00;0.00;0.62;10.23;7.80;;;25.60;24.00;;;;;;2021442;63;20538;-64
2024/04/10 05:34:10;0.00;0.00;0.62;0.00;0.00;0.62;8.17;7.00;;;25.70;24.10;;;;;;2022002;63;20471;-64
2024/04/10 05:36:55;0.00;0.00;0.62;0.00;0.00;0.62;9.70;7.40;;;25.60;24.10;;;;;;2021615;55;20496;-64
2024/04/10 05:39:39;0.00;0.00;0.62;0.00;0.00;0.62;9.87;7.47;;;25.60;24.10;;;;;;2021515;63;20463;-64
2024/04/10 05:42:24;0.00;0.00;0.62;0.00;0.00;0.62;9.43;7.33;;;25.60;24.10;;;;;;2021736;63;20487;-65
2024/04/10 05:45:10;0.00;0.00;0.62;0.00;0.00;0.62;10.77;9.03;;;25.60;24.10;;;;;;2021274;63;21088;-65
2024/04/10 05:47:55;0.00;0.00;0.62;0.00;0.00;0.62;10.60;8.60;;;25.60;24.10;;;;;;2021700;63;20479;-63
2024/04/10 05:50:46;0.00;0.00;0.62;0.00;0.00;0.62;10.10;8.00;;;25.60;24.20;;;;;;2021784;63;20471;-66
2024/04/10 05:53:33;0.00;0.00;0.62;0.00;0.00;0.62;10.63;8.87;;;25.60;24.20;;;;;;2021293;63;20475;-66
2024/04/10 05:56:18;0.00;0.00;0.62;0.00;0.00;0.62;11.60;9.20;;;25.60;24.10;;;;;;2021769;63;20475;-65
2024/04/10 05:59:05;0.00;0.00;0.62;0.00;0.00;0.62;10.70;8.77;;;25.60;24.20;;;;;;2022231;63;21096;-66
2024/04/10 06:01:50;0.00;0.00;0.62;0.00;0.00;0.62;9.73;7.40;;;25.60;24.20;;;;;;2021856;63;20863;-64
2024/04/10 06:04:34;0.00;0.00;0.62;0.00;0.00;0.62;11.37;8.60;;;25.60;24.20;;;;;;2021789;63;20495;-66
2024/04/10 06:07:22;0.00;0.00;0.62;0.00;0.00;0.62;11.87;9.53;;;25.60;24.20;;;;;;2021344;63;20471;-67
2024/04/10 06:10:07;0.00;0.00;0.62;0.00;0.00;0.62;11.40;9.10;;;25.60;24.20;;;;;;2021678;63;20471;-67
2024/04/10 06:12:52;0.00;0.00;0.62;0.00;0.00;0.62;11.70;8.60;;;25.60;24.20;;;;;;2022078;63;20487;-67
2024/04/10 06:15:37;0.00;0.00;0.62;0.00;0.00;0.62;11.67;9.30;;;25.60;24.20;;;;;;2021178;63;20479;-68
2024/04/10 06:18:21;0.00;0.00;0.62;0.00;0.00;0.62;10.97;8.30;;;25.60;24.20;;;;;;2022102;63;20533;-65
2024/04/10 06:21:07;0.00;0.00;0.62;0.00;0.00;0.62;11.90;8.93;;;25.60;24.10;;;;;;2021824;63;20541;-64
2024/04/10 06:23:54;0.00;0.00;0.62;0.00;0.00;0.62;10.97;8.97;;;25.50;24.10;;;;;;2022243;63;20467;-65
2024/04/10 06:26:39;0.00;0.00;0.62;0.00;0.00;0.62;10.73;8.30;;;25.60;24.20;;;;;;2022150;63;20941;-67
2024/04/10 06:29:24;0.00;0.00;0.62;0.00;0.00;0.62;12.37;8.87;;;25.60;24.10;;;;;;2021745;63;20492;-64
2024/04/10 06:32:09;0.00;0.00;0.62;0.00;0.00;0.62;13.30;9.20;;;25.50;24.10;;;;;;2022037;63;20466;-66
2024/04/10 06:34:53;0.00;0.00;0.62;0.00;0.00;0.62;11.50;8.40;;;25.50;24.10;;;;;;2022161;63;20475;-65
2024/04/10 06:37:38;0.00;0.00;0.62;0.00;0.00;0.62;12.10;8.60;;;25.50;24.10;;;;;;2021620;63;21031;-66
2024/04/10 06:40:26;0.00;0.00;0.62;0.00;0.00;0.62;12.50;8.90;;;25.50;24.10;;;;;;2022120;63;20538;-66
2024/04/10 06:43:11;0.00;0.00;0.62;0.00;0.00;0.62;12.13;9.20;;;25.60;24.20;;;;;;2021716;63;20479;-65
2024/04/10 06:45:57;0.00;0.00;0.62;0.00;0.00;0.62;10.57;8.60;;;25.60;24.20;;;;;;2022035;63;20886;-66
2024/04/10 06:48:41;0.00;0.00;0.62;0.00;0.00;0.62;11.23;8.63;;;25.60;24.10;;;;;;2021972;63;20482;-67
2024/04/10 06:51:26;0.00;0.00;0.62;0.00;0.00;0.62;10.87;7.90;;;25.60;24.10;;;;;;2021607;63;20542;-65
2024/04/10 06:54:11;0.00;0.00;0.62;0.00;0.00;0.62;11.17;8.47;;;25.60;24.10;;;;;;2022140;63;20474;-66
2024/04/10 06:56:58;0.00;0.00;0.62;0.00;0.00;0.62;11.70;8.50;;;25.60;24.10;;;;;;2022059;55;21021;-66
2024/04/10 06:59:46;0.00;0.00;0.62;0.00;0.00;0.62;9.00;7.07;;;25.60;24.20;;;;;;2021047;63;20550;-66
2024/04/10 07:02:31;0.00;0.00;0.62;0.00;0.00;0.62;11.30;9.03;;;25.60;24.20;;;;;;2021943;63;20479;-67
2024/04/10 07:05:16;0.00;0.00;0.62;0.00;0.00;0.62;11.50;8.43;;;25.60;24.20;;;;;;2021613;63;20487;-67
2024/04/10 07:08:01;0.00;0.00;0.62;0.00;0.00;0.62;11.70;8.83;;;25.60;24.20;;;;;;2021562;63;20470;-67
2024/04/10 07:10:51;0.00;0.00;0.62;0.00;0.00;0.62;12.47;8.63;;;25.60;24.20;;;;;;2021984;63;20511;-67
2024/04/10 07:13:39;0.00;0.00;0.62;0.00;0.00;0.62;10.87;8.53;;;25.60;24.20;;;;;;2020777;63;20536;-66
2024/04/10 07:16:27;0.00;0.00;0.62;0.00;0.00;0.62;11.10;7.00;;;25.60;24.20;;;;;;2022489;63;20478;-66
2024/04/10 07:19:12;0.00;0.00;0.62;0.00;0.00;0.62;10.90;7.50;;;25.60;24.20;;;;;;2022154;63;21042;-66
2024/04/10 07:21:56;0.00;0.00;0.62;0.00;0.00;0.62;9.07;7.93;;;25.60;24.20;;;;;;2021635;63;20536;-67
2024/04/10 07:24:41;0.00;0.00;0.62;0.00;0.00;0.62;10.33;7.60;;;25.60;24.20;;;;;;2022885;63;20467;-67
2024/04/10 07:27:26;0.00;0.00;0.62;0.00;0.00;0.62;8.43;7.27;;;25.60;24.20;;;;;;2021915;63;20471;-67
2024/04/10 07:30:14;0.00;0.00;0.62;0.00;0.00;0.62;9.37;7.03;;;25.60;24.20;;;;;;2022640;63;20467;-67
2024/04/10 07:32:59;0.00;0.00;0.62;0.00;0.00;0.62;9.50;7.10;;;25.60;24.20;;;;;;2025134;63;20491;-67
2024/04/10 07:35:44;0.00;0.00;0.62;0.00;0.00;0.62;9.70;6.97;;;25.60;24.20;;;;;;2024666;63;20471;-67
2024/04/10 07:38:29;0.00;0.00;0.62;0.00;0.00;0.62;8.70;7.07;;;25.60;24.20;;;;;;2022808;63;20475;-66
2024/04/10 07:41:14;0.00;0.00;0.62;0.00;0.00;0.62;7.47;6.30;;;25.50;24.20;;;;;;2026329;63;20470;-67
2024/04/10 07:43:58;0.00;0.00;0.62;0.00;0.00;0.62;9.07;6.17;;;25.60;24.20;;;;;;2023937;63;20925;-66
2024/04/10 07:46:47;0.00;0.00;0.62;0.00;0.00;0.62;8.63;6.40;;;25.60;24.20;;;;;;2024826;63;20487;-66
2024/04/10 07:49:32;0.00;0.00;0.62;0.00;0.00;0.62;9.40;6.80;;;25.60;24.30;;;;;;2025485;63;20910;-67
2024/04/10 07:52:16;0.00;0.00;0.62;0.00;0.00;0.62;8.00;6.30;;;25.60;24.30;;;;;;2019919;63;20517;-66
2024/04/10 07:55:01;0.00;0.00;0.62;0.00;0.00;0.62;7.73;5.77;;;25.60;24.30;;;;;;2016963;63;20494;-66
2024/04/10 07:57:46;0.00;0.00;0.62;0.00;0.00;0.62;8.30;6.00;;;25.60;24.30;;;;;;2017952;63;20504;-67
2024/04/10 08:00:30;0.00;0.00;0.62;0.00;0.00;0.62;8.17;6.00;;;25.60;24.30;;;;;;2021663;63;21065;-67
2024/04/10 08:03:18;0.00;0.00;0.62;0.00;0.00;0.62;8.90;6.43;;;25.60;24.20;;;;;;2022075;63;20554;-67
2024/04/10 08:06:05;0.00;0.00;0.62;0.00;0.00;0.62;8.20;6.47;;;25.60;24.80;;;;;;2020852;63;20538;-67
2024/04/10 08:08:50;0.00;0.00;0.62;0.00;0.00;0.62;6.83;5.17;;;25.60;24.30;;;;;;2021671;63;20472;-66
2024/04/10 08:11:35;0.00;0.00;0.62;0.00;0.00;0.62;5.40;4.70;;;25.60;24.20;;;;;;2021709;63;20459;-67
2024/04/10 08:14:20;0.00;0.00;0.62;0.00;0.00;0.62;6.10;5.50;;;25.60;24.30;;;;;;2021166;63;20902;-67
2024/04/10 08:17:05;0.00;0.00;0.62;0.00;0.00;0.62;7.07;5.40;;;25.60;24.30;;;;;;2021752;63;20490;-67
2024/04/10 08:19:55;0.00;0.00;0.62;0.00;0.00;0.62;8.00;5.73;;;25.60;24.30;;;;;;2021187;63;20881;-67
2024/04/10 08:22:42;0.00;0.00;0.62;0.00;0.00;0.62;7.77;6.13;;;25.60;24.30;;;;;;2021542;63;20486;-67
2024/04/10 08:25:31;0.00;0.00;0.62;0.00;0.00;0.62;6.27;5.07;;;25.60;24.30;;;;;;2021985;63;20475;-66
2024/04/10 08:28:17;0.00;0.00;0.62;0.00;0.00;0.62;7.57;5.73;;;25.60;24.30;;;;;;2020866;63;21398;-66
2024/04/10 08:31:03;0.00;0.00;0.62;0.00;0.00;0.62;7.20;5.63;;;25.60;24.30;;;;;;2021719;63;20989;-66
2024/04/10 08:33:51;0.00;0.00;0.62;0.00;0.00;0.62;6.47;5.17;;;25.60;24.30;;;;;;2021811;63;20487;-66
2024/04/10 08:36:39;0.00;0.00;0.62;0.00;0.00;0.62;7.60;4.93;;;25.60;24.30;;;;;;2021577;63;20540;-67
2024/04/10 08:39:24;0.00;0.00;0.62;0.00;0.00;0.62;7.60;4.90;;;25.60;24.30;;;;;;2020903;63;20526;-67
2024/04/10 08:42:13;0.00;0.00;0.62;0.00;0.00;0.62;7.30;5.00;;;25.60;24.80;;;;;;2021341;63;20546;-65
2024/04/10 08:44:59;0.00;0.00;0.62;0.00;0.00;0.62;6.90;5.40;;;25.60;24.20;;;;;;2021688;63;20458;-65
2024/04/10 08:47:46;0.00;0.00;0.62;0.00;0.00;0.62;6.63;4.50;;;25.70;24.30;;;;;;2021376;63;21088;-66
2024/04/10 08:50:33;0.00;0.00;0.62;0.00;0.00;0.62;5.70;4.40;;;25.70;24.30;;;;;;2020955;63;20475;-67
2024/04/10 08:53:21;0.00;0.00;0.62;0.00;0.00;0.62;6.97;5.10;;;25.70;24.30;;;;;;2021796;63;20487;-67
2024/04/10 08:56:11;0.00;0.00;0.62;0.00;0.00;0.62;6.57;4.50;;;25.70;24.30;;;;;;2021313;63;20479;-67
2024/04/10 08:58:56;0.00;0.00;0.62;0.00;0.00;0.62;7.50;4.80;;;25.70;24.40;;;;;;2021027;63;20881;-66
2024/04/10 09:01:43;0.00;0.00;0.62;0.00;0.00;0.62;6.40;4.60;;;25.70;24.40;;;;;;2021320;63;20479;-67
2024/04/10 09:04:29;0.00;0.00;0.62;0.00;0.00;0.62;6.97;4.60;;;25.60;24.30;;;;;;2021197;63;20475;-69
2024/04/10 09:07:18;0.00;0.00;0.62;0.00;0.00;0.62;6.87;5.00;;;25.70;24.40;;;;;;2021017;63;20467;-66
2024/04/10 09:10:11;0.00;0.00;0.62;0.00;0.00;0.62;5.60;4.80;;;25.70;24.40;;;;;;2021535;63;20460;-68
2024/04/10 09:13:10;0.00;0.00;0.62;0.00;0.00;0.62;6.53;4.40;;;25.70;24.40;;;;;;2020929;63;20491;-66
2024/04/10 09:15:57;0.00;0.00;0.62;0.00;0.00;0.62;4.87;3.87;;;25.70;24.40;;;;;;2021611;63;20522;-68
2024/04/10 09:18:43;0.00;0.00;0.62;0.00;0.00;0.62;6.80;5.00;;;25.70;24.40;;;;;;2021103;63;20491;-67
2024/04/10 09:21:28;0.00;0.00;0.62;0.00;0.00;0.62;11.67;4.30;;;25.70;24.40;;;;;;2021407;63;20522;-67
2024/04/10 09:24:16;0.00;0.00;0.62;0.00;0.00;0.62;7.50;5.20;;;25.70;24.40;;;;;;2021345;63;20479;-67
2024/04/10 09:27:10;0.00;0.00;0.62;0.00;0.00;0.62;5.60;4.17;;;25.70;24.50;;;;;;2020746;63;20470;-67
2024/04/10 09:29:59;0.00;0.00;0.62;0.00;0.00;0.62;7.80;3.90;;;25.70;24.50;;;;;;2021663;63;20467;-66
2024/04/10 09:32:44;0.00;0.00;0.62;0.00;0.00;0.62;5.87;4.37;;;25.70;25.10;;;;;;2021648;63;20558;-65
2024/04/10 09:35:33;0.00;0.00;0.62;0.00;0.00;0.62;7.17;4.10;;;25.70;24.50;;;;;;2020723;63;20572;-68
2024/04/10 09:38:19;0.00;0.00;0.62;0.00;0.00;0.62;4.77;3.60;;;25.70;24.50;;;;;;2021763;63;20475;-65
2024/04/10 09:41:07;0.00;0.00;0.62;0.00;0.00;0.62;6.73;3.80;;;25.70;24.50;;;;;;2021286;63;20479;-67
2024/04/10 09:43:55;0.00;0.00;0.62;0.00;0.00;0.62;4.87;3.57;;;25.70;24.50;;;;;;2021414;63;20508;-67
2024/04/10 09:46:46;0.00;0.00;0.62;0.00;0.00;0.62;5.07;3.77;;;25.70;24.60;;;;;;2024639;63;20909;-67
2024/04/10 09:49:41;0.00;0.00;0.62;0.00;0.00;0.62;5.30;3.27;;;25.70;24.60;;;;;;2020739;63;20474;-65
2024/04/10 09:52:27;0.00;0.00;0.62;0.00;0.00;0.62;5.40;3.90;;;25.70;24.60;;;;;;2021321;63;20483;-65
2024/04/10 09:55:14;0.00;0.00;0.62;0.00;0.00;0.62;5.50;3.03;;;25.70;24.60;;;;;;2021672;63;20560;-66
2024/04/10 09:58:02;0.00;0.00;0.62;0.00;0.00;0.62;4.40;3.43;;;25.70;24.60;;;;;;2015532;63;20480;-68
2024/04/10 10:00:49;0.00;0.00;0.62;0.00;0.00;0.62;3.70;2.97;;;25.70;24.60;;;;;;2016768;63;20471;-66
2024/04/10 10:03:34;0.00;0.00;0.62;0.00;0.00;0.62;4.37;3.00;;;25.70;24.60;;;;;;2018248;63;20490;-65
2024/04/10 10:06:28;0.00;0.00;0.62;0.00;0.00;0.62;4.90;3.33;;;25.70;24.60;;;;;;2021362;63;20504;-66
2024/04/10 10:09:23;0.00;0.00;0.62;0.00;0.00;0.62;3.47;2.93;;;25.80;24.70;;;;;;2021369;63;20545;-67
2024/04/10 10:12:08;0.00;0.00;0.62;0.00;0.00;0.62;3.67;2.43;;;25.70;24.60;;;;;;2020764;63;21024;-65
2024/04/10 10:14:53;0.00;0.00;0.62;0.00;0.00;0.62;5.40;2.63;;;25.80;24.60;;;;;;2021773;63;20542;-65
2024/04/10 10:17:52;0.00;0.00;0.62;0.00;0.00;0.62;3.93;2.73;;;25.80;24.70;;;;;;2021081;63;20470;-65
2024/04/10 10:20:40;0.00;0.00;0.62;0.00;0.00;0.62;4.17;2.87;;;25.80;24.70;;;;;;2021174;63;20872;-66
2024/04/10 10:23:25;0.00;0.00;0.62;0.00;0.00;0.62;3.80;2.37;;;25.80;24.60;;;;;;2021555;63;20467;-67
2024/04/10 10:26:10;0.00;0.00;0.62;0.00;0.00;0.62;3.20;2.40;;;25.80;24.60;;;;;;2020950;63;20502;-67
2024/04/10 10:29:01;0.00;0.00;0.62;0.00;0.00;0.62;4.83;2.60;;;25.80;24.60;;;;;;2021444;63;20468;-66
2024/04/10 10:31:46;0.00;0.00;0.62;0.00;0.00;0.62;3.63;2.30;;;25.80;24.70;;;;;;2021481;63;20542;-67
2024/04/10 10:34:34;0.00;0.00;0.62;0.00;0.00;0.62;3.77;2.90;;;25.80;24.70;;;;;;2021121;63;20483;-65
2024/04/10 10:37:19;0.00;0.00;0.62;0.00;0.00;0.62;5.17;3.00;;;25.80;24.70;;;;;;2021684;63;20471;-66
2024/04/10 10:40:07;0.00;0.00;0.62;0.00;0.00;0.62;4.07;2.70;;;25.80;24.70;;;;;;2024290;63;20549;-66
2024/04/10 10:43:00;0.00;0.00;0.62;0.00;0.00;0.62;3.23;2.17;;;25.80;24.60;;;;;;2021370;63;21054;-65
2024/04/10 10:45:51;0.00;0.00;0.62;0.00;0.00;0.62;4.00;3.10;;;25.80;25.20;;;;;;2021537;63;20910;-66
2024/04/10 10:48:36;0.00;0.00;0.62;0.00;0.00;0.62;3.10;2.20;;;25.80;24.60;;;;;;2021063;63;20563;-65
2024/04/10 10:51:24;0.00;0.00;0.62;0.00;0.00;0.62;3.40;2.50;;;25.80;24.60;;;;;;2021597;63;20459;-65
2024/04/10 10:54:09;0.00;0.00;0.62;0.00;0.00;0.62;2.43;1.80;;;25.90;24.70;;;;;;2021575;63;20467;-65
2024/04/10 10:57:01;0.00;0.00;0.62;0.00;0.00;0.62;3.47;2.40;;;25.90;24.70;;;;;;2020985;63;20476;-65
2024/04/10 10:59:46;0.00;0.00;0.62;0.00;0.00;0.62;4.23;2.40;;;25.90;24.70;;;;;;2021012;63;20546;-64